Aviation Digital Data Service (ADDS)

Output produced by METARs form (0417 UTC 26 April 2019)
found at http://www.aviationweather.gov/metar/data/
 
METAR text: FNLU 260200Z VRB03KT 8000 FEW018 BKN070 25/23 Q1010 NOSIG
Conditions at: FNLU (LUANDA/4 DE FEVE, AO) observed 0200 UTC 26 April 2019
Temperature: 25.0°C (77°F)
Dewpoint: 23.0°C (73°F) [RH = 89%]
Pressure (altimeter): 29.82 inches Hg (1010.0 mb)
Winds: variable direction winds at 3 MPH (3 knots; 1.5 m/s)
Visibility: 5 miles ( 8 km)
Ceiling: 7000 feet AGL
Clouds: few clouds at 1800 feet AGL
broken clouds at 7000 feet AGL
Weather: no significant weather observed at this time

METAR text: FNLU 260100Z 18005KT 8000 FEW018 BKN070 25/23 Q1010 NOSIG
Conditions at: FNLU (LUANDA/4 DE FEVE, AO) observed 0100 UTC 26 April 2019
Temperature: 25.0°C (77°F)
Dewpoint: 23.0°C (73°F) [RH = 89%]
Pressure (altimeter): 29.82 inches Hg (1010.0 mb)
Winds: from the S (180 degrees) at 6 MPH (5 knots; 2.6 m/s)
Visibility: 5 miles ( 8 km)
Ceiling: 7000 feet AGL
Clouds: few clouds at 1800 feet AGL
broken clouds at 7000 feet AGL
Weather: no significant weather observed at this time

METAR text: FNLU 260000Z 16007KT 8000 FEW018 BKN070 26/23 Q1011
Conditions at: FNLU (LUANDA/4 DE FEVE, AO) observed 0000 UTC 26 April 2019
Temperature: 26.0°C (79°F)
Dewpoint: 23.0°C (73°F) [RH = 84%]
Pressure (altimeter): 29.85 inches Hg (1011.0 mb)
Winds: from the SSE (160 degrees) at 8 MPH (7 knots; 3.6 m/s)
Visibility: 5 miles ( 8 km)
Ceiling: 7000 feet AGL
Clouds: few clouds at 1800 feet AGL
broken clouds at 7000 feet AGL
Weather: no significant weather observed at this time

METAR text: FNLU 252200Z 17007KT 8000 FEW020 26/23 Q1012 NOSIG
Conditions at: FNLU (LUANDA/4 DE FEVE, AO) observed 2200 UTC 25 April 2019
Temperature: 26.0°C (79°F)
Dewpoint: 23.0°C (73°F) [RH = 84%]
Pressure (altimeter): 29.88 inches Hg (1012.0 mb)
Winds: from the S (170 degrees) at 8 MPH (7 knots; 3.6 m/s)
Visibility: 5 miles ( 8 km)
Ceiling: at least 12,000 feet AGL
Clouds: few clouds at 2000 feet AGL
Weather: no significant weather observed at this time

METAR text: FNLU 252100Z 17008KT 8000 FEW020 26/23 Q1012 NOSIG
Conditions at: FNLU (LUANDA/4 DE FEVE, AO) observed 2100 UTC 25 April 2019
Temperature: 26.0°C (79°F)
Dewpoint: 23.0°C (73°F) [RH = 84%]
Pressure (altimeter): 29.88 inches Hg (1012.0 mb)
Winds: from the S (170 degrees) at 9 MPH (8 knots; 4.1 m/s)
Visibility: 5 miles ( 8 km)
Ceiling: at least 12,000 feet AGL
Clouds: few clouds at 2000 feet AGL
Weather: no significant weather observed at this time

METAR text: FNLU 252000Z 18007KT 8000 FEW020 26/23 Q1012 NOSIG
Conditions at: FNLU (LUANDA/4 DE FEVE, AO) observed 2000 UTC 25 April 2019
Temperature: 26.0°C (79°F)
Dewpoint: 23.0°C (73°F) [RH = 84%]
Pressure (altimeter): 29.88 inches Hg (1012.0 mb)
Winds: from the S (180 degrees) at 8 MPH (7 knots; 3.6 m/s)
Visibility: 5 miles ( 8 km)
Ceiling: at least 12,000 feet AGL
Clouds: few clouds at 2000 feet AGL
Weather: no significant weather observed at this time

METAR text: FNLU 251800Z 18012KT 9999 FEW014 SCT022 27/23 Q1011 NOSIG
Conditions at: FNLU (LUANDA/4 DE FEVE, AO) observed 1800 UTC 25 April 2019
Temperature: 27.0°C (81°F)
Dewpoint: 23.0°C (73°F) [RH = 79%]
Pressure (altimeter): 29.85 inches Hg (1011.0 mb)
Winds: from the S (180 degrees) at 14 MPH (12 knots; 6.2 m/s)
Visibility: 6 or more miles (10+ km)
Ceiling: at least 12,000 feet AGL
Clouds: few clouds at 1400 feet AGL
scattered clouds at 2200 feet AGL
Weather: no significant weather observed at this time

METAR text: FNLU 251700Z 24007KT 9999 FEW015 SCT080 28/23 Q1010
Conditions at: FNLU (LUANDA/4 DE FEVE, AO) observed 1700 UTC 25 April 2019
Temperature: 28.0°C (82°F)
Dewpoint: 23.0°C (73°F) [RH = 74%]
Pressure (altimeter): 29.82 inches Hg (1010.0 mb)
Winds: from the WSW (240 degrees) at 8 MPH (7 knots; 3.6 m/s)
Visibility: 6 or more miles (10+ km)
Ceiling: at least 12,000 feet AGL
Clouds: few clouds at 1500 feet AGL
scattered clouds at 8000 feet AGL
Weather: no significant weather observed at this time

METAR text: FNLU 251600Z 26008KT 9999 FEW015 SCT022 BKN080 28/24 Q1010 NOSIG
Conditions at: FNLU (LUANDA/4 DE FEVE, AO) observed 1600 UTC 25 April 2019
Temperature: 28.0°C (82°F)
Dewpoint: 24.0°C (75°F) [RH = 79%]
Pressure (altimeter): 29.82 inches Hg (1010.0 mb)
Winds: from the W (260 degrees) at 9 MPH (8 knots; 4.1 m/s)
Visibility: 6 or more miles (10+ km)
Ceiling: 8000 feet AGL
Clouds: few clouds at 1500 feet AGL
scattered clouds at 2200 feet AGL
broken clouds at 8000 feet AGL
Weather: no significant weather observed at this time

METAR text: FNLU 251500Z 25008KT 9999 FEW015 SCT022 BKN080 28/24 Q1010
Conditions at: FNLU (LUANDA/4 DE FEVE, AO) observed 1500 UTC 25 April 2019
Temperature: 28.0°C (82°F)
Dewpoint: 24.0°C (75°F) [RH = 79%]
Pressure (altimeter): 29.82 inches Hg (1010.0 mb)
Winds: from the WSW (250 degrees) at 9 MPH (8 knots; 4.1 m/s)
Visibility: 6 or more miles (10+ km)
Ceiling: 8000 feet AGL
Clouds: few clouds at 1500 feet AGL
scattered clouds at 2200 feet AGL
broken clouds at 8000 feet AGL
Weather: no significant weather observed at this time

METAR text: FNLU 251400Z 25006KT 9999 FEW015 BKN080 29/24 Q1010
Conditions at: FNLU (LUANDA/4 DE FEVE, AO) observed 1400 UTC 25 April 2019
Temperature: 29.0°C (84°F)
Dewpoint: 24.0°C (75°F) [RH = 74%]
Pressure (altimeter): 29.82 inches Hg (1010.0 mb)
Winds: from the WSW (250 degrees) at 7 MPH (6 knots; 3.1 m/s)
Visibility: 6 or more miles (10+ km)
Ceiling: 8000 feet AGL
Clouds: few clouds at 1500 feet AGL
broken clouds at 8000 feet AGL
Weather: no significant weather observed at this time

METAR text: FNLU 251300Z 28006KT 9999 FEW015 BKN080 29/24 Q1011
Conditions at: FNLU (LUANDA/4 DE FEVE, AO) observed 1300 UTC 25 April 2019
Temperature: 29.0°C (84°F)
Dewpoint: 24.0°C (75°F) [RH = 74%]
Pressure (altimeter): 29.85 inches Hg (1011.0 mb)
Winds: from the W (280 degrees) at 7 MPH (6 knots; 3.1 m/s)
Visibility: 6 or more miles (10+ km)
Ceiling: 8000 feet AGL
Clouds: few clouds at 1500 feet AGL
broken clouds at 8000 feet AGL
Weather: no significant weather observed at this time

METAR text: FNLU 251200Z 28006KT 9999 FEW015 BKN080 28/25 Q1012
Conditions at: FNLU (LUANDA/4 DE FEVE, AO) observed 1200 UTC 25 April 2019
Temperature: 28.0°C (82°F)
Dewpoint: 25.0°C (77°F) [RH = 84%]
Pressure (altimeter): 29.88 inches Hg (1012.0 mb)
Winds: from the W (280 degrees) at 7 MPH (6 knots; 3.1 m/s)
Visibility: 6 or more miles (10+ km)
Ceiling: 8000 feet AGL
Clouds: few clouds at 1500 feet AGL
broken clouds at 8000 feet AGL
Weather: no significant weather observed at this time

METAR text: FNLU 251100Z 30008KT 9999 FEW021 BKN090 30/24 Q1013
Conditions at: FNLU (LUANDA/4 DE FEVE, AO) observed 1100 UTC 25 April 2019
Temperature: 30.0°C (86°F)
Dewpoint: 24.0°C (75°F) [RH = 70%]
Pressure (altimeter): 29.91 inches Hg (1013.0 mb)
Winds: from the WNW (300 degrees) at 9 MPH (8 knots; 4.1 m/s)
Visibility: 6 or more miles (10+ km)
Ceiling: 9000 feet AGL
Clouds: few clouds at 2100 feet AGL
broken clouds at 9000 feet AGL
Weather: no significant weather observed at this time

METAR text: FNLU 251000Z 27004KT 9999 FEW022 BKN090 30/24 Q1014
Conditions at: FNLU (LUANDA/4 DE FEVE, AO) observed 1000 UTC 25 April 2019
Temperature: 30.0°C (86°F)
Dewpoint: 24.0°C (75°F) [RH = 70%]
Pressure (altimeter): 29.94 inches Hg (1014.0 mb)
Winds: from the W (270 degrees) at 5 MPH (4 knots; 2.1 m/s)
Visibility: 6 or more miles (10+ km)
Ceiling: 9000 feet AGL
Clouds: few clouds at 2200 feet AGL
broken clouds at 9000 feet AGL
Weather: no significant weather observed at this time

METAR text: FNLU 250900Z 12004KT //// FEW017 SCT022 BKN080 29/23 Q1014
Conditions at: FNLU (LUANDA/4 DE FEVE, AO) observed 0900 UTC 25 April 2019
Temperature: 29.0°C (84°F)
Dewpoint: 23.0°C (73°F) [RH = 70%]
Pressure (altimeter): 29.94 inches Hg (1014.0 mb)
Winds: from the ESE (120 degrees) at 5 MPH (4 knots; 2.1 m/s)
Visibility: missing
Ceiling: 8000 feet AGL
Clouds: few clouds at 1700 feet AGL
scattered clouds at 2200 feet AGL
broken clouds at 8000 feet AGL
Weather: no significant weather observed at this time

METAR text: FNLU 250800Z 17006KT 9999 FEW015 SCT021 BKN080 27/24 Q1014
Conditions at: FNLU (LUANDA/4 DE FEVE, AO) observed 0800 UTC 25 April 2019
Temperature: 27.0°C (81°F)
Dewpoint: 24.0°C (75°F) [RH = 84%]
Pressure (altimeter): 29.94 inches Hg (1014.0 mb)
Winds: from the S (170 degrees) at 7 MPH (6 knots; 3.1 m/s)
Visibility: 6 or more miles (10+ km)
Ceiling: 8000 feet AGL
Clouds: few clouds at 1500 feet AGL
scattered clouds at 2100 feet AGL
broken clouds at 8000 feet AGL
Weather: no significant weather observed at this time

METAR text: FNLU 250700Z 20004KT 9999 FEW015 SCT021 BKN080 27/24 Q1013
Conditions at: FNLU (LUANDA/4 DE FEVE, AO) observed 0700 UTC 25 April 2019
Temperature: 27.0°C (81°F)
Dewpoint: 24.0°C (75°F) [RH = 84%]
Pressure (altimeter): 29.91 inches Hg (1013.0 mb)
Winds: from the SSW (200 degrees) at 5 MPH (4 knots; 2.1 m/s)
Visibility: 6 or more miles (10+ km)
Ceiling: 8000 feet AGL
Clouds: few clouds at 1500 feet AGL
scattered clouds at 2100 feet AGL
broken clouds at 8000 feet AGL
Weather: no significant weather observed at this time

METAR text: FNLU 250600Z 17006KT 9999 FEW020 BKN070 26/24 Q1013 NOSIG
Conditions at: FNLU (LUANDA/4 DE FEVE, AO) observed 0600 UTC 25 April 2019
Temperature: 26.0°C (79°F)
Dewpoint: 24.0°C (75°F) [RH = 89%]
Pressure (altimeter): 29.91 inches Hg (1013.0 mb)
Winds: from the S (170 degrees) at 7 MPH (6 knots; 3.1 m/s)
Visibility: 6 or more miles (10+ km)
Ceiling: 7000 feet AGL
Clouds: few clouds at 2000 feet AGL
broken clouds at 7000 feet AGL
Weather: no significant weather observed at this time

METAR text: FNLU 250500Z 15006KT 9999 FEW020 BKN070 26/24 Q1013 NOSIG
Conditions at: FNLU (LUANDA/4 DE FEVE, AO) observed 0500 UTC 25 April 2019
Temperature: 26.0°C (79°F)
Dewpoint: 24.0°C (75°F) [RH = 89%]
Pressure (altimeter): 29.91 inches Hg (1013.0 mb)
Winds: from the SSE (150 degrees) at 7 MPH (6 knots; 3.1 m/s)
Visibility: 6 or more miles (10+ km)
Ceiling: 7000 feet AGL
Clouds: few clouds at 2000 feet AGL
broken clouds at 7000 feet AGL
Weather: no significant weather observed at this time

METAR text: FNLU 250400Z 17006KT 9000 SCT020 BKN070 26/23 Q1012 NOSIG
Conditions at: FNLU (LUANDA/4 DE FEVE, AO) observed 0400 UTC 25 April 2019
Temperature: 26.0°C (79°F)
Dewpoint: 23.0°C (73°F) [RH = 84%]
Pressure (altimeter): 29.88 inches Hg (1012.0 mb)
Winds: from the S (170 degrees) at 7 MPH (6 knots; 3.1 m/s)
Visibility: 6 miles ( 9 km)
Ceiling: 7000 feet AGL
Clouds: scattered clouds at 2000 feet AGL
broken clouds at 7000 feet AGL
Weather: no significant weather observed at this time

METAR text: FNLU 250300Z 17008KT 9000 FEW020 BKN070 26/24 Q1012 NOSIG
Conditions at: FNLU (LUANDA/4 DE FEVE, AO) observed 0300 UTC 25 April 2019
Temperature: 26.0°C (79°F)
Dewpoint: 24.0°C (75°F) [RH = 89%]
Pressure (altimeter): 29.88 inches Hg (1012.0 mb)
Winds: from the S (170 degrees) at 9 MPH (8 knots; 4.1 m/s)
Visibility: 6 miles ( 9 km)
Ceiling: 7000 feet AGL
Clouds: few clouds at 2000 feet AGL
broken clouds at 7000 feet AGL
Weather: no significant weather observed at this time

METAR text: FNLU 250200Z 17006KT 9999 FEW020 BKN070 26/23 Q1012 NOSIG
Conditions at: FNLU (LUANDA/4 DE FEVE, AO) observed 0200 UTC 25 April 2019
Temperature: 26.0°C (79°F)
Dewpoint: 23.0°C (73°F) [RH = 84%]
Pressure (altimeter): 29.88 inches Hg (1012.0 mb)
Winds: from the S (170 degrees) at 7 MPH (6 knots; 3.1 m/s)
Visibility: 6 or more miles (10+ km)
Ceiling: 7000 feet AGL
Clouds: few clouds at 2000 feet AGL
broken clouds at 7000 feet AGL
Weather: no significant weather observed at this time

METAR text: FNLU 250100Z 18006KT 9999 FEW020 SCT070 26/23 Q1012 NOSIG
Conditions at: FNLU (LUANDA/4 DE FEVE, AO) observed 0100 UTC 25 April 2019
Temperature: 26.0°C (79°F)
Dewpoint: 23.0°C (73°F) [RH = 84%]
Pressure (altimeter): 29.88 inches Hg (1012.0 mb)
Winds: from the S (180 degrees) at 7 MPH (6 knots; 3.1 m/s)
Visibility: 6 or more miles (10+ km)
Ceiling: at least 12,000 feet AGL
Clouds: few clouds at 2000 feet AGL
scattered clouds at 7000 feet AGL
Weather: no significant weather observed at this time

METAR text: FNLU 250000Z 19008KT 9999 FEW020 BKN070 26/23 Q1012 NOSIG
Conditions at: FNLU (LUANDA/4 DE FEVE, AO) observed 0000 UTC 25 April 2019
Temperature: 26.0°C (79°F)
Dewpoint: 23.0°C (73°F) [RH = 84%]
Pressure (altimeter): 29.88 inches Hg (1012.0 mb)
Winds: from the S (190 degrees) at 9 MPH (8 knots; 4.1 m/s)
Visibility: 6 or more miles (10+ km)
Ceiling: 7000 feet AGL
Clouds: few clouds at 2000 feet AGL
broken clouds at 7000 feet AGL
Weather: no significant weather observed at this time

METAR text: FNLU 242200Z 20006KT 9999 FEW020 FEW070 26/23 Q1013 NOSIG
Conditions at: FNLU (LUANDA/4 DE FEVE, AO) observed 2200 UTC 24 April 2019
Temperature: 26.0°C (79°F)
Dewpoint: 23.0°C (73°F) [RH = 84%]
Pressure (altimeter): 29.91 inches Hg (1013.0 mb)
Winds: from the SSW (200 degrees) at 7 MPH (6 knots; 3.1 m/s)
Visibility: 6 or more miles (10+ km)
Ceiling: at least 12,000 feet AGL
Clouds: few clouds at 2000 feet AGL
few clouds at 7000 feet AGL
Weather: no significant weather observed at this time

METAR text: FNLU 242100Z 21005KT 9999 FEW020 BKN070 27/23 Q1013 NOSIG
Conditions at: FNLU (LUANDA/4 DE FEVE, AO) observed 2100 UTC 24 April 2019
Temperature: 27.0°C (81°F)
Dewpoint: 23.0°C (73°F) [RH = 79%]
Pressure (altimeter): 29.91 inches Hg (1013.0 mb)
Winds: from the SSW (210 degrees) at 6 MPH (5 knots; 2.6 m/s)
Visibility: 6 or more miles (10+ km)
Ceiling: 7000 feet AGL
Clouds: few clouds at 2000 feet AGL
broken clouds at 7000 feet AGL
Weather: no significant weather observed at this time

METAR text: FNLU 242000Z 20004KT 9999 FEW020 BKN070 27/23 Q1013 NOSIG
Conditions at: FNLU (LUANDA/4 DE FEVE, AO) observed 2000 UTC 24 April 2019
Temperature: 27.0°C (81°F)
Dewpoint: 23.0°C (73°F) [RH = 79%]
Pressure (altimeter): 29.91 inches Hg (1013.0 mb)
Winds: from the SSW (200 degrees) at 5 MPH (4 knots; 2.1 m/s)
Visibility: 6 or more miles (10+ km)
Ceiling: 7000 feet AGL
Clouds: few clouds at 2000 feet AGL
broken clouds at 7000 feet AGL
Weather: no significant weather observed at this time

METAR text: FNLU 241900Z 24005KT 9999 FEW020 FEW090 27/23 Q1012 NOSIG
Conditions at: FNLU (LUANDA/4 DE FEVE, AO) observed 1900 UTC 24 April 2019
Temperature: 27.0°C (81°F)
Dewpoint: 23.0°C (73°F) [RH = 79%]
Pressure (altimeter): 29.88 inches Hg (1012.0 mb)
Winds: from the WSW (240 degrees) at 6 MPH (5 knots; 2.6 m/s)
Visibility: 6 or more miles (10+ km)
Ceiling: at least 12,000 feet AGL
Clouds: few clouds at 2000 feet AGL
few clouds at 9000 feet AGL
Weather: no significant weather observed at this time

METAR text: FNLU 241800Z 24005KT 9999 FEW020 SCT090 28/23 Q1011
Conditions at: FNLU (LUANDA/4 DE FEVE, AO) observed 1800 UTC 24 April 2019
Temperature: 28.0°C (82°F)
Dewpoint: 23.0°C (73°F) [RH = 74%]
Pressure (altimeter): 29.85 inches Hg (1011.0 mb)
Winds: from the WSW (240 degrees) at 6 MPH (5 knots; 2.6 m/s)
Visibility: 6 or more miles (10+ km)
Ceiling: at least 12,000 feet AGL
Clouds: few clouds at 2000 feet AGL
scattered clouds at 9000 feet AGL
Weather: no significant weather observed at this time

METAR text: FNLU 241700Z 23008KT 9999 FEW020 28/23 Q1009 NOSIG
Conditions at: FNLU (LUANDA/4 DE FEVE, AO) observed 1700 UTC 24 April 2019
Temperature: 28.0°C (82°F)
Dewpoint: 23.0°C (73°F) [RH = 74%]
Pressure (altimeter): 29.79 inches Hg (1009.0 mb)
Winds: from the SW (230 degrees) at 9 MPH (8 knots; 4.1 m/s)
Visibility: 6 or more miles (10+ km)
Ceiling: at least 12,000 feet AGL
Clouds: few clouds at 2000 feet AGL
Weather: no significant weather observed at this time

Forecast for: FNLU (LUANDA/4 DE FEVE, AO)
Text: TAF FNLU 252300Z 2600/2706 17007KT 8000 FEW020
Forecast period: 0000 to 0900 UTC 26 April 2019
Forecast type: FROM: standard forecast or significant change
Winds: from the S (170 degrees) at 8 MPH (7 knots; 3.6 m/s)
Visibility: 5 miles (8 km)
Ceiling: at least 12,000 feet AGL
Clouds: few clouds at 2000 feet AGL
Weather: no significant weather forecast for this period
Text: TEMPO 2603/2607 20004KT 9999 FEW015 SCT021 BKN050
Forecast period: 0300 to 0700 UTC 26 April 2019
Forecast type: TEMPORARY: The following changes expected for less than half the time period
Winds: from the SSW (200 degrees) at 5 MPH (4 knots; 2.1 m/s)
Visibility: 6 or more miles 10+ km)
Ceiling: 5000 feet AGL
Clouds: few clouds at 1500 feet AGL
scattered clouds at 2100 feet AGL
broken clouds at 5000 feet AGL
Weather: no significant weather forecast for this period
Text: BECMG 2609/2611 30008KT 9999 FEW021 BKN040
Forecast period: 0900 UTC 26 April 2019 to 0600 UTC 27 April 2019
Forecast type: BECOMING: Conditions expected to become as follows by 1100 UTC 26 April 2019
Winds: from the WNW (300 degrees) at 9 MPH (8 knots; 4.1 m/s)
Visibility: 6 or more miles 10+ km)
Ceiling: 4000 feet AGL
Clouds: few clouds at 2100 feet AGL
broken clouds at 4000 feet AGL
Weather: no significant weather forecast for this period
Text: TEMPO 2613/2617 24007KT 9999 FEW015 SCT050
Forecast period: 1300 to 1700 UTC 26 April 2019
Forecast type: TEMPORARY: The following changes expected for less than half the time period
Winds: from the WSW (240 degrees) at 8 MPH (7 knots; 3.6 m/s)
Visibility: 6 or more miles 10+ km)
Ceiling: at least 12,000 feet AGL
Clouds: few clouds at 1500 feet AGL
scattered clouds at 5000 feet AGL
Weather: no significant weather forecast for this period